createdAt,value
2023-02-15T00:02:03.952Z,5.70
2023-02-15T00:04:46.957Z,5.70
2023-02-15T00:07:18.785Z,5.70
2023-02-15T00:09:47.540Z,5.70
2023-02-15T00:12:15.596Z,5.60
2023-02-15T00:14:43.159Z,5.60
2023-02-15T00:17:10.465Z,5.60
2023-02-15T00:19:37.797Z,5.50
2023-02-15T00:22:04.976Z,5.50
2023-02-15T00:24:32.189Z,5.40
2023-02-15T00:26:59.528Z,5.40
2023-02-15T00:29:27.195Z,5.50
2023-02-15T00:31:54.432Z,5.40
2023-02-15T00:34:27.558Z,5.40
2023-02-15T00:36:54.782Z,5.40
2023-02-15T00:39:22.299Z,5.40
2023-02-15T00:41:49.477Z,5.40
2023-02-15T00:44:17.038Z,5.40
2023-02-15T00:46:44.278Z,5.30
2023-02-15T00:49:11.795Z,5.30
2023-02-15T00:51:40.357Z,5.90
2023-02-15T00:54:08.156Z,5.30
2023-02-15T00:56:35.460Z,5.20
2023-02-15T00:59:03.116Z,5.20
2023-02-15T01:01:30.354Z,5.20
2023-02-15T01:03:57.800Z,5.20
2023-02-15T01:06:25.079Z,5.20
2023-02-15T01:08:52.337Z,5.20
2023-02-15T01:11:25.171Z,5.20
2023-02-15T01:13:55.688Z,5.20
2023-02-15T01:16:25.125Z,5.20
2023-02-15T01:18:52.506Z,5.20
2023-02-15T01:21:22.957Z,5.20
2023-02-15T01:23:50.332Z,5.20
2023-02-15T01:26:17.965Z,5.20
2023-02-15T01:28:46.092Z,5.20
2023-02-15T01:31:16.471Z,5.20
2023-02-15T01:33:46.430Z,5.30
2023-02-15T01:36:13.876Z,5.30
2023-02-15T01:38:41.366Z,5.20
2023-02-15T01:41:21.203Z,5.20
2023-02-15T01:43:57.824Z,5.10
2023-02-15T01:46:38.480Z,5.10
2023-02-15T01:49:15.784Z,5.10
2023-02-15T01:51:45.821Z,5.10
2023-02-15T01:54:22.095Z,5.10
2023-02-15T01:56:49.562Z,5.10
2023-02-15T01:59:21.620Z,5.10
2023-02-15T02:01:53.228Z,5.10
2023-02-15T02:04:38.762Z,5.20
2023-02-15T02:07:08.139Z,5.20
2023-02-15T02:09:36.658Z,5.10
2023-02-15T02:12:04.140Z,5.10
2023-02-15T02:14:31.675Z,5.10
2023-02-15T02:17:13.226Z,5.10
2023-02-15T02:20:02.369Z,5.00
2023-02-15T02:23:00.357Z,5.00
2023-02-15T02:25:51.977Z,5.00
2023-02-15T02:28:49.455Z,5.00
2023-02-15T02:31:47.682Z,5.00
2023-02-15T02:34:20.053Z,5.00
2023-02-15T02:37:38.466Z,4.90
2023-02-15T02:40:09.001Z,4.90
2023-02-15T02:42:41.231Z,4.90
2023-02-15T02:45:11.411Z,4.90
2023-02-15T02:47:48.596Z,4.80
2023-02-15T02:50:19.099Z,4.80
2023-02-15T02:52:48.767Z,4.90
2023-02-15T02:55:22.497Z,4.90
2023-02-15T02:57:54.572Z,5.00
2023-02-15T03:00:24.422Z,5.00
2023-02-15T03:02:56.698Z,5.10
2023-02-15T03:05:27.407Z,5.50
2023-02-15T03:07:57.856Z,5.10
2023-02-15T03:10:26.091Z,5.10
2023-02-15T03:12:55.166Z,5.70
2023-02-15T03:15:26.186Z,5.10
2023-02-15T03:18:03.661Z,5.10
2023-02-15T03:20:35.251Z,5.10
2023-02-15T03:23:11.894Z,5.10
2023-02-15T03:25:42.915Z,5.10
2023-02-15T03:28:16.491Z,5.00
2023-02-15T03:30:47.623Z,5.00
2023-02-15T03:33:15.966Z,5.00
2023-02-15T03:35:52.474Z,5.00
2023-02-15T03:38:26.598Z,5.00
2023-02-15T03:41:12.555Z,5.00
2023-02-15T03:43:51.695Z,4.90
2023-02-15T03:46:28.961Z,4.90
2023-02-15T03:49:07.959Z,4.90
2023-02-15T03:51:39.115Z,4.90
2023-02-15T03:54:14.470Z,4.80
2023-02-15T03:57:03.208Z,4.80
2023-02-15T03:59:49.158Z,4.80
2023-02-15T04:02:24.488Z,4.80
2023-02-15T04:04:51.641Z,4.80
2023-02-15T04:07:18.855Z,4.80
2023-02-15T04:10:24.214Z,4.80
2023-02-15T04:12:51.367Z,4.70
2023-02-15T04:15:37.170Z,4.70
2023-02-15T04:18:05.012Z,4.70
2023-02-15T04:20:51.088Z,4.70
2023-02-15T04:23:37.060Z,4.70
2023-02-15T04:26:07.332Z,4.70
2023-02-15T04:28:37.036Z,4.70
2023-02-15T04:31:04.225Z,4.70
2023-02-15T04:33:31.399Z,4.70
2023-02-15T04:35:58.610Z,4.70
2023-02-15T04:38:25.787Z,4.70
2023-02-15T04:40:53.675Z,4.60
2023-02-15T04:43:21.176Z,4.60
2023-02-15T04:45:50.475Z,4.60
2023-02-15T04:48:18.643Z,4.60
2023-02-15T04:50:46.017Z,4.60
2023-02-15T04:53:13.535Z,4.60
2023-02-15T04:55:40.760Z,4.60
2023-02-15T04:58:07.968Z,4.50
2023-02-15T05:00:35.112Z,4.50
2023-02-15T05:03:02.322Z,4.50
2023-02-15T05:05:29.465Z,4.50
2023-02-15T05:07:56.586Z,4.50
2023-02-15T05:10:23.795Z,4.40
2023-02-15T05:12:50.967Z,4.40
2023-02-15T05:15:18.248Z,4.40
2023-02-15T05:17:45.376Z,4.40
2023-02-15T05:20:12.644Z,4.40
2023-02-15T05:22:41.688Z,4.40
2023-02-15T05:25:28.535Z,4.30
2023-02-15T05:28:14.603Z,4.40
2023-02-15T05:30:42.121Z,4.30
2023-02-15T05:33:09.615Z,4.30
2023-02-15T05:35:36.798Z,4.30
2023-02-15T05:38:04.023Z,4.30
2023-02-15T05:40:31.173Z,4.30
2023-02-15T05:42:58.685Z,4.30
2023-02-15T05:45:26.166Z,4.30
2023-02-15T05:47:53.370Z,4.30
2023-02-15T05:50:20.642Z,4.30
2023-02-15T05:52:48.151Z,4.30
2023-02-15T05:55:15.703Z,4.40
2023-02-15T05:57:42.960Z,4.30
2023-02-15T06:00:10.865Z,4.30
2023-02-15T06:02:41.363Z,4.30
2023-02-15T06:05:08.758Z,4.30
2023-02-15T06:07:36.037Z,4.30
2023-02-15T06:10:04.081Z,4.30
2023-02-15T06:12:31.756Z,4.20
2023-02-15T06:14:58.972Z,4.20
2023-02-15T06:17:26.153Z,4.20
2023-02-15T06:19:53.301Z,4.20
2023-02-15T06:22:21.265Z,4.20
2023-02-15T06:24:48.503Z,4.10
2023-02-15T06:27:15.748Z,4.10
2023-02-15T06:29:42.902Z,4.10
2023-02-15T06:32:10.170Z,4.00
2023-02-15T06:34:37.428Z,4.00
2023-02-15T06:37:04.625Z,4.00
2023-02-15T06:39:32.503Z,4.00
2023-02-15T06:41:59.700Z,4.00
2023-02-15T06:44:27.031Z,4.00
2023-02-15T06:46:54.411Z,4.00
2023-02-15T06:49:21.591Z,4.00
2023-02-15T06:51:48.811Z,4.00
2023-02-15T06:54:16.036Z,3.90
2023-02-15T06:56:44.513Z,3.90
2023-02-15T06:59:11.822Z,4.00
2023-02-15T07:01:39.169Z,3.90
2023-02-15T07:04:06.532Z,4.00
2023-02-15T07:06:34.572Z,4.00
2023-02-15T07:09:02.052Z,4.00
2023-02-15T07:11:52.791Z,4.00
2023-02-15T07:14:20.017Z,4.00
2023-02-15T07:16:47.266Z,4.00
2023-02-15T07:19:14.534Z,4.10
2023-02-15T07:21:41.699Z,4.00
2023-02-15T07:24:08.830Z,4.10
2023-02-15T07:26:36.012Z,4.20
2023-02-15T07:29:03.580Z,4.20
2023-02-15T07:31:30.768Z,4.20
2023-02-15T07:33:57.975Z,4.30
2023-02-15T07:36:25.196Z,4.40
2023-02-15T07:38:52.426Z,4.40
2023-02-15T07:41:19.644Z,4.40
2023-02-15T07:43:46.892Z,4.50
2023-02-15T07:46:16.511Z,4.50
2023-02-15T07:48:44.440Z,4.50
2023-02-15T07:51:12.955Z,4.60
2023-02-15T07:53:40.250Z,4.60
2023-02-15T07:56:12.453Z,4.60
2023-02-15T07:58:51.666Z,4.70
2023-02-15T08:01:36.140Z,4.70
2023-02-15T08:04:06.543Z,4.80
2023-02-15T08:06:36.115Z,4.90
2023-02-15T08:09:10.372Z,5.00
2023-02-15T08:11:40.181Z,5.20
2023-02-15T08:14:11.349Z,5.30
2023-02-15T08:16:50.536Z,5.40
2023-02-15T08:19:25.126Z,5.60
2023-02-15T08:22:13.763Z,5.80
2023-02-15T08:24:42.068Z,6.30
2023-02-15T08:27:11.935Z,7.50
2023-02-15T08:29:40.346Z,9.30
2023-02-15T08:32:11.233Z,9.30
2023-02-15T08:34:42.752Z,9.90
2023-02-15T08:37:10.451Z,10.70
2023-02-15T08:39:37.800Z,10.80
2023-02-15T08:42:05.369Z,10.60
2023-02-15T08:44:32.633Z,10.20
2023-02-15T08:47:04.720Z,10.50
2023-02-15T08:49:32.397Z,11.50
2023-02-15T08:52:00.558Z,12.40
2023-02-15T08:54:27.825Z,13.00
2023-02-15T08:56:55.218Z,13.30
2023-02-15T08:59:24.076Z,13.70
2023-02-15T09:01:52.838Z,13.80
2023-02-15T09:04:21.490Z,13.60
2023-02-15T09:06:49.850Z,13.50
2023-02-15T09:09:18.385Z,13.30
2023-02-15T09:11:48.153Z,13.80
2023-02-15T09:14:25.445Z,15.30
2023-02-15T09:16:53.910Z,16.00
2023-02-15T09:19:23.383Z,16.40
2023-02-15T09:21:51.208Z,16.40
2023-02-15T09:24:18.654Z,16.60
2023-02-15T09:26:48.482Z,16.40
2023-02-15T09:29:17.541Z,16.20
2023-02-15T09:31:47.850Z,16.40
2023-02-15T09:34:18.032Z,16.70
2023-02-15T09:36:45.761Z,17.00
2023-02-15T09:39:15.941Z,17.20
2023-02-15T09:41:55.016Z,17.00
2023-02-15T09:44:40.812Z,17.30
2023-02-15T09:47:08.644Z,17.60
2023-02-15T09:49:47.510Z,17.90
2023-02-15T09:52:32.473Z,18.80
2023-02-15T09:55:14.661Z,19.90
2023-02-15T09:58:03.559Z,20.70
2023-02-15T10:00:57.136Z,21.00
2023-02-15T10:03:39.106Z,20.50
2023-02-15T10:06:48.378Z,20.50
2023-02-15T10:09:25.992Z,21.70
2023-02-15T10:12:17.507Z,22.70
2023-02-15T10:15:12.524Z,23.60
2023-02-15T10:18:01.196Z,23.50
2023-02-15T10:20:53.250Z,23.30
2023-02-15T10:23:23.273Z,23.70
2023-02-15T10:26:15.021Z,24.10
2023-02-15T10:28:52.409Z,24.60
2023-02-15T10:31:22.662Z,25.50
2023-02-15T10:34:02.871Z,25.90
2023-02-15T10:36:42.093Z,25.90
2023-02-15T10:39:39.252Z,25.70
2023-02-15T10:42:30.561Z,25.60
2023-02-15T10:45:11.390Z,25.10
2023-02-15T10:47:57.188Z,24.10
2023-02-15T10:50:36.863Z,23.80
2023-02-15T10:53:15.966Z,23.80
2023-02-15T10:56:12.571Z,23.80
2023-02-15T10:58:57.338Z,24.20
2023-02-15T11:01:55.510Z,25.20
2023-02-15T11:04:52.419Z,25.60
2023-02-15T11:07:23.645Z,25.60
2023-02-15T11:09:57.628Z,24.80
2023-02-15T11:12:28.115Z,23.70
2023-02-15T11:15:04.688Z,22.40
2023-02-15T11:17:51.483Z,21.10
2023-02-15T11:20:49.963Z,20.00
2023-02-15T11:23:19.308Z,18.90
2023-02-15T11:25:52.584Z,18.60
2023-02-15T11:28:29.876Z,18.10
2023-02-15T11:30:59.011Z,18.30
2023-02-15T11:33:31.890Z,19.70
2023-02-15T11:36:05.027Z,21.70
2023-02-15T11:38:35.821Z,23.20
2023-02-15T11:41:12.840Z,22.90
2023-02-15T11:43:49.677Z,22.20
2023-02-15T11:46:16.943Z,22.20
2023-02-15T11:48:44.361Z,21.90
2023-02-15T11:51:23.759Z,21.60
2023-02-15T11:53:52.222Z,21.00
2023-02-15T11:56:22.883Z,19.80
2023-02-15T11:58:59.514Z,18.80
2023-02-15T12:01:33.888Z,18.60
2023-02-15T12:04:24.814Z,18.40
2023-02-15T12:07:29.574Z,18.40
2023-02-15T12:10:21.005Z,18.80
2023-02-15T12:13:11.797Z,18.70
2023-02-15T12:15:47.379Z,18.80
2023-02-15T12:18:40.097Z,19.00
2023-02-15T12:21:36.854Z,19.80
2023-02-15T12:24:19.319Z,19.60
2023-02-15T12:26:58.413Z,19.10
2023-02-15T12:29:31.351Z,18.90
2023-02-15T12:31:59.709Z,19.40
2023-02-15T12:34:32.971Z,20.30
2023-02-15T12:37:09.907Z,21.10
2023-02-15T12:39:37.205Z,21.40
2023-02-15T12:42:15.028Z,22.40
2023-02-15T12:44:55.182Z,23.40
2023-02-15T12:47:28.918Z,23.10
2023-02-15T12:50:18.284Z,22.90
2023-02-15T12:52:49.189Z,22.90
2023-02-15T12:55:31.057Z,22.70
2023-02-15T12:58:15.507Z,22.60
2023-02-15T13:00:42.738Z,22.10
2023-02-15T13:03:22.567Z,21.80
2023-02-15T13:05:54.169Z,21.40
2023-02-15T13:08:28.155Z,20.90
2023-02-15T13:11:04.341Z,19.90
2023-02-15T13:13:35.455Z,19.10
2023-02-15T13:16:11.796Z,18.60
2023-02-15T13:18:43.556Z,18.00
2023-02-15T13:21:13.513Z,17.70
2023-02-15T13:23:46.920Z,18.20
2023-02-15T13:26:19.745Z,18.70
2023-02-15T13:28:50.590Z,18.80
2023-02-15T13:31:24.687Z,18.60
2023-02-15T13:34:18.052Z,18.00
2023-02-15T13:37:13.235Z,17.60
2023-02-15T13:40:01.577Z,17.40
2023-02-15T13:42:41.471Z,16.90
2023-02-15T13:45:27.001Z,16.30
2023-02-15T13:48:01.925Z,16.00
2023-02-15T13:50:50.671Z,15.90
2023-02-15T13:53:39.780Z,15.90
2023-02-15T13:56:39.832Z,15.70
2023-02-15T13:59:41.343Z,15.50
2023-02-15T14:02:29.423Z,15.60
2023-02-15T14:05:37.210Z,15.90
2023-02-15T14:08:34.050Z,16.10
2023-02-15T14:11:33.322Z,16.30
2023-02-15T14:14:41.562Z,16.10
2023-02-15T14:17:16.197Z,16.00
2023-02-15T14:19:55.227Z,16.20
2023-02-15T14:22:47.969Z,16.30
2023-02-15T14:25:22.975Z,16.40
2023-02-15T14:28:05.158Z,16.60
2023-02-15T14:30:38.831Z,16.50
2023-02-15T14:33:08.229Z,16.50
2023-02-15T14:35:38.064Z,17.40
2023-02-15T14:38:24.681Z,17.90
2023-02-15T14:41:05.612Z,17.60
2023-02-15T14:43:48.330Z,17.10
2023-02-15T14:46:31.035Z,17.30
2023-02-15T14:49:23.522Z,18.50
2023-02-15T14:51:51.102Z,18.80
2023-02-15T14:54:18.291Z,18.60
2023-02-15T14:56:47.327Z,17.90
2023-02-15T14:59:21.666Z,17.40
2023-02-15T15:02:16.209Z,16.70
2023-02-15T15:05:09.403Z,16.00
2023-02-15T15:07:46.559Z,15.40
2023-02-15T15:10:20.754Z,14.70
2023-02-15T15:12:49.945Z,14.30
2023-02-15T15:15:30.505Z,14.10
2023-02-15T15:18:06.363Z,13.90
2023-02-15T15:20:42.787Z,13.80
2023-02-15T15:23:15.981Z,13.80
2023-02-15T15:25:52.790Z,13.70
2023-02-15T15:28:35.103Z,13.60
2023-02-15T15:31:20.906Z,13.40
2023-02-15T15:34:11.443Z,13.20
2023-02-15T15:37:06.349Z,13.10
2023-02-15T15:40:23.514Z,13.00
2023-02-15T15:42:59.940Z,12.90
2023-02-15T15:45:36.305Z,12.80
2023-02-15T15:48:13.790Z,12.70
2023-02-15T15:50:42.453Z,12.60
2023-02-15T15:53:22.078Z,12.50
2023-02-15T15:55:55.085Z,12.50
2023-02-15T15:58:23.402Z,12.40
2023-02-15T16:00:57.986Z,12.40
2023-02-15T16:03:28.694Z,12.30
2023-02-15T16:05:57.135Z,12.20
2023-02-15T16:08:39.990Z,12.20
2023-02-15T16:11:26.299Z,12.10
2023-02-15T16:13:54.306Z,12.00
2023-02-15T16:16:30.379Z,11.90
2023-02-15T16:19:00.379Z,11.90
2023-02-15T16:21:34.488Z,11.80
2023-02-15T16:24:18.515Z,11.70
2023-02-15T16:26:57.891Z,11.60
2023-02-15T16:29:32.248Z,11.50
2023-02-15T16:32:26.397Z,11.40
2023-02-15T16:35:02.965Z,11.30
2023-02-15T16:37:35.330Z,11.20
2023-02-15T16:40:02.860Z,11.10
2023-02-15T16:42:30.137Z,11.00
2023-02-15T16:45:25.488Z,11.00
2023-02-15T16:47:58.073Z,10.90
2023-02-15T16:50:31.589Z,10.80
2023-02-15T16:52:59.231Z,10.80
2023-02-15T16:55:36.012Z,10.70
2023-02-15T16:58:05.961Z,10.70
2023-02-15T17:00:37.783Z,10.60
2023-02-15T17:03:23.986Z,10.50
2023-02-15T17:05:57.549Z,10.50
2023-02-15T17:08:37.822Z,10.50
2023-02-15T17:11:05.465Z,10.40
2023-02-15T17:13:33.016Z,10.30
2023-02-15T17:16:00.497Z,10.30
2023-02-15T17:18:30.928Z,10.30
2023-02-15T17:21:01.412Z,10.30
2023-02-15T17:23:36.102Z,10.30
2023-02-15T17:26:23.545Z,10.30
2023-02-15T17:28:54.902Z,10.30
2023-02-15T17:31:24.946Z,10.30
2023-02-15T17:33:55.282Z,10.20
2023-02-15T17:36:24.452Z,10.20
2023-02-15T17:39:00.617Z,10.20
2023-02-15T17:41:33.667Z,10.10
2023-02-15T17:44:02.419Z,10.20
2023-02-15T17:46:35.415Z,10.10
2023-02-15T17:49:05.200Z,10.10
2023-02-15T17:51:35.764Z,10.10
2023-02-15T17:54:22.124Z,10.10
2023-02-15T17:56:49.267Z,10.10
2023-02-15T17:59:16.538Z,10.10
2023-02-15T18:02:05.664Z,10.10
2023-02-15T18:04:53.799Z,10.10
2023-02-15T18:07:39.777Z,10.10
2023-02-15T18:10:34.106Z,10.10
2023-02-15T18:13:01.352Z,10.10
2023-02-15T18:15:28.890Z,10.10
2023-02-15T18:17:56.503Z,10.10
2023-02-15T18:20:32.744Z,10.10
2023-02-15T18:23:01.925Z,10.10
2023-02-15T18:25:29.272Z,10.10
2023-02-15T18:27:56.845Z,10.10
2023-02-15T18:30:26.692Z,10.20
2023-02-15T18:32:57.198Z,10.20
2023-02-15T18:35:30.028Z,10.30
2023-02-15T18:37:59.741Z,10.30
2023-02-15T18:40:28.699Z,10.30
2023-02-15T18:42:57.136Z,10.30
2023-02-15T18:45:32.945Z,10.40
2023-02-15T18:48:00.400Z,10.40
2023-02-15T18:50:30.988Z,10.40
2023-02-15T18:52:58.296Z,10.40
2023-02-15T18:55:32.444Z,10.30
2023-02-15T18:58:01.026Z,10.30
2023-02-15T19:00:33.693Z,10.30
2023-02-15T19:03:04.864Z,10.30
2023-02-15T19:05:32.921Z,10.30
2023-02-15T19:08:01.764Z,10.30
2023-02-15T19:10:31.357Z,10.30
2023-02-15T19:12:58.673Z,10.20
2023-02-15T19:15:30.425Z,10.20
2023-02-15T19:17:57.801Z,10.30
2023-02-15T19:20:31.171Z,10.20
2023-02-15T19:23:01.444Z,10.20
2023-02-15T19:25:32.119Z,10.20
2023-02-15T19:27:59.494Z,10.10
2023-02-15T19:30:31.671Z,10.10
2023-02-15T19:32:59.956Z,10.10
2023-02-15T19:35:32.081Z,10.00
2023-02-15T19:38:02.640Z,10.00
2023-02-15T19:40:32.780Z,9.90
2023-02-15T19:43:00.141Z,9.90
2023-02-15T19:45:32.083Z,9.90
2023-02-15T19:48:01.375Z,9.80
2023-02-15T19:50:31.315Z,9.80
2023-02-15T19:52:58.946Z,9.80
2023-02-15T19:55:35.022Z,9.70
2023-02-15T19:58:10.948Z,9.70
2023-02-15T20:00:38.143Z,9.60
2023-02-15T20:03:05.917Z,9.60
2023-02-15T20:05:38.209Z,9.50
2023-02-15T20:08:09.900Z,9.50
2023-02-15T20:10:37.136Z,9.50
2023-02-15T20:13:04.273Z,9.40
2023-02-15T20:15:35.742Z,9.50
2023-02-15T20:18:04.014Z,9.50
2023-02-15T20:20:40.254Z,9.40
2023-02-15T20:23:17.749Z,9.40
2023-02-15T20:25:45.016Z,9.40
2023-02-15T20:28:20.686Z,9.30
2023-02-15T20:30:49.084Z,9.30
2023-02-15T20:33:17.489Z,9.30
2023-02-15T20:35:45.871Z,9.30
2023-02-15T20:38:24.691Z,9.20
2023-02-15T20:41:11.045Z,9.20
2023-02-15T20:43:39.659Z,9.10
2023-02-15T20:46:07.648Z,9.00
2023-02-15T20:48:35.412Z,9.00
2023-02-15T20:51:03.645Z,9.00
2023-02-15T20:53:31.045Z,9.00
2023-02-15T20:55:58.250Z,9.00
2023-02-15T20:58:28.461Z,8.90
2023-02-15T21:00:57.890Z,8.90
2023-02-15T21:03:30.239Z,8.90
2023-02-15T21:05:58.957Z,8.90
2023-02-15T21:08:27.092Z,8.90
2023-02-15T21:10:54.605Z,8.80
2023-02-15T21:13:29.543Z,8.80
2023-02-15T21:15:57.713Z,8.80
2023-02-15T21:18:30.779Z,8.80
2023-02-15T21:21:00.773Z,8.80
2023-02-15T21:23:38.424Z,8.80
2023-02-15T21:26:06.048Z,8.80
2023-02-15T21:28:33.315Z,8.70
2023-02-15T21:31:00.612Z,8.70
2023-02-15T21:33:27.879Z,8.60
2023-02-15T21:35:57.634Z,8.60
2023-02-15T21:38:29.104Z,8.60
2023-02-15T21:41:16.437Z,8.50
2023-02-15T21:44:02.267Z,8.50
2023-02-15T21:46:48.196Z,8.40
2023-02-15T21:49:16.026Z,8.40
2023-02-15T21:52:01.655Z,8.40
2023-02-15T21:54:28.875Z,8.40
2023-02-15T21:56:57.013Z,8.30
2023-02-15T21:59:27.026Z,7.10
2023-02-15T22:01:54.374Z,8.30
2023-02-15T22:04:29.958Z,8.20
2023-02-15T22:06:57.265Z,8.20
2023-02-15T22:09:27.150Z,8.20
2023-02-15T22:11:55.046Z,8.20
2023-02-15T22:14:31.083Z,8.20
2023-02-15T22:16:58.286Z,8.20
2023-02-15T22:19:25.493Z,8.10
2023-02-15T22:21:52.680Z,8.10
2023-02-15T22:24:19.918Z,8.10
2023-02-15T22:26:47.181Z,8.10
2023-02-15T22:29:17.392Z,8.00
2023-02-15T22:31:45.228Z,8.00
2023-02-15T22:34:27.736Z,8.00
2023-02-15T22:36:55.918Z,8.00
2023-02-15T22:39:24.654Z,8.00
2023-02-15T22:41:53.076Z,8.00
2023-02-15T22:44:29.209Z,8.00
2023-02-15T22:46:56.818Z,8.00
2023-02-15T22:49:24.027Z,8.00
2023-02-15T22:51:51.701Z,8.00
2023-02-15T22:54:19.753Z,8.00
2023-02-15T22:56:52.511Z,8.00
2023-02-15T22:59:21.599Z,8.20
2023-02-15T23:01:49.178Z,8.00
2023-02-15T23:04:23.990Z,8.00
2023-02-15T23:06:53.223Z,8.00
2023-02-15T23:09:20.887Z,8.00
2023-02-15T23:11:50.316Z,8.00
2023-02-15T23:14:32.356Z,8.00
2023-02-15T23:16:59.509Z,7.90
2023-02-15T23:19:27.528Z,7.90
2023-02-15T23:21:54.734Z,7.90
2023-02-15T23:24:26.827Z,7.90
2023-02-15T23:26:54.141Z,7.80
2023-02-15T23:29:23.551Z,7.80
2023-02-15T23:31:53.259Z,7.70
2023-02-15T23:34:26.948Z,7.70
2023-02-15T23:36:54.547Z,7.70
2023-02-15T23:39:45.725Z,7.70
2023-02-15T23:42:27.917Z,7.60
2023-02-15T23:44:55.904Z,7.60
2023-02-15T23:47:47.831Z,7.50
2023-02-15T23:50:21.238Z,7.50
2023-02-15T23:52:50.550Z,7.40
2023-02-15T23:55:18.409Z,7.40
2023-02-15T23:57:46.239Z,7.40
